Retrouvez les resultats des épreuves Cycling Classics France

 
 
 
 
 
 
 
 
VEUILLEZ INDIQUER VOTRE NOM OU NUMéRO CYCLING CLASSICS FRANCE


2017 - La Bourgogne Cyclo GranFondo - SCRATCH
RG.DOS.TEMPSCAT (RG.) POINTS
1 241POLVERONI DAVID 04:18:44 M (18 - 29) (1) 300.00
2 117RUFFAUT PIERRE 04:18:44 M (18 - 29) (2) 299.00
3 104VUILLIER DAMIEN 04:21:55 M (30 - 39) (1) 300.00
4 139DE VECCHI DAVID 04:21:55 M (40 - 49) (1) 300.00
5 347DESTOOP BRECHT 04:21:56 M (30 - 39) (2) 299.00
6 236COGNET STEPHANE 04:21:56 M (30 - 39) (3) 298.00
7 488CLAVEL SYLVAIN 04:21:56 M (18 - 29) (3) 298.00
8 468DOMANICO BAPTISTE 04:21:56 M (18 - 29) (4) 297.00
9 496MASONI YOANN 04:21:56 M (30 - 39) (4) 297.00
10 493SIMONIN FLORIAN 04:21:57 M (18 - 29) (5) 296.00
11 222PESSEY JEAN FRANCIS 04:21:57 M (30 - 39) (5) 296.00
12 417VERDENAL JOCELYN 04:21:57 M (18 - 29) (6) 295.00
13 162TURNES WILLIAM 04:28:10 M (40 - 49) (2) 299.00
14 123POTTIER CYRILLE 04:30:08 M (40 - 49) (3) 298.00
15 220SCHITTECATTE BRAM 04:30:08 M (30 - 39) (6) 295.00
16 240CHEVALIER PIERRE 04:30:08 M (50 - 59) (1) 300.00
17 116LOURD RODOLPHE 04:30:09 M (30 - 39) (7) 294.00
18 385DUPOUHET ALEXANDRE 04:31:21 M (30 - 39) (8) 293.00
19 165RICHARD DAMIEN 04:31:24 M (30 - 39) (9) 292.00
20 226FRICKER DANIEL 04:31:24 M (40 - 49) (4) 297.00
21 112PANNECOUCKE WESLEY 04:31:24 M (30 - 39) (10) 291.00
22 108CHAVANON JEAN LUC 04:31:31 M (50 - 59) (2) 299.00
23 81CARTAL MARC 04:31:34 M (60 - 66) (1) 300.00
24 231CLOITRE GUILLAUME 04:31:37 M (18 - 29) (7) 294.00
25 371LUCAS JACQUES 04:31:46 M (60 - 66) (2) 299.00
26 470PEDRENO MAXENCE 04:32:13 M (18 - 29) (8) 293.00
27 166MARTINET GILLES 04:32:13 M (40 - 49) (5) 296.00
28 214BOSSLER JEAN FRANCOIS 04:32:52 M (40 - 49) (6) 295.00
29 127DELEERSNYDER ARNAUD 04:32:52 M (40 - 49) (7) 294.00
30 384BOURNAND REMI 04:32:54 M (30 - 39) (11) 290.00
31 478CARRIER GERALD 04:32:55 M (40 - 49) (8) 293.00
32 230SCHUEHMACHER CYRIL 04:36:39 M (18 - 29) (9) 292.00
33 491BARONE FABIO 04:36:39 M (30 - 39) (12) 289.00
34 475DESBRINI CEDRIC 04:36:40 M (40 - 49) (9) 292.00
35 494LEBAS SEBASTIEN 04:39:08 M (40 - 49) (10) 291.00
36 313BARREIRA AUGUSTE 04:40:55 M (40 - 49) (11) 290.00
37 381? ? 04:43:39 INCONNU (1) 300.00
38 150BORRION REMI 04:43:40 M (40 - 49) (12) 289.00
39 454DENIS LUDOVIC 04:43:40 M (40 - 49) (13) 288.00
40 130CAUWENBERGH GERT 04:43:41 M (30 - 39) (13) 288.00
41 160BABYTCHEFF MARTIAL 04:43:41 M (50 - 59) (3) 298.00
42 430FAGGION GIUSEPPE 04:43:41 M (50 - 59) (4) 297.00
43 476OSKWAREK SYLVAIN 04:45:41 M (60 - 66) (3) 298.00
44 305DEGAND JEAN ANTOINE 04:45:43 M (18 - 29) (10) 291.00
45 359HERBIN LAURENT 04:45:43 M (50 - 59) (5) 296.00
46 215ISCHARD FREDERIC 04:45:44 M (30 - 39) (14) 287.00
47 216DUTAILLY JACQUES 04:45:44 M (60 - 66) (4) 297.00
48 19CARPENTIER JIMMY 04:45:52 M (18 - 29) (11) 290.00
49 429MINOT ALEXANDRE 04:45:52 M (40 - 49) (14) 287.00
50 485QU‚QUEVILLE ST‚PHANE 04:45:52 M (40 - 49) (15) 286.00
51 466GIRARD BENOIT 04:45:52 M (30 - 39) (15) 286.00
52 243PENKALLA ANTOINE 04:45:52 M (18 - 29) (12) 289.00
53 483GORRET NICOLAS 04:45:52 M (18 - 29) (13) 288.00
54 61CORREGGIO PASCAL 04:45:53 M (50 - 59) (6) 295.00
55 489SAGET GUIBERT 04:45:53 M (50 - 59) (7) 294.00
56 106DURA GILBERT 04:45:53 M (50 - 59) (8) 293.00
57 461DAVID FR‚D‚RICK 04:45:53 M (30 - 39) (16) 285.00
58 320RUYSSCHAERT TIJS 04:45:53 M (30 - 39) (17) 284.00
59 447DUCHER J‚R“ME 04:45:53 M (40 - 49) (16) 285.00
60 219MOYSE ETIENNE-MARIE 04:45:53 M (30 - 39) (18) 283.00
61 249PERRIN THOMAS 04:45:54 M (18 - 29) (14) 287.00
62 480PERRIN JORDAN 04:45:55 M (18 - 29) (15) 286.00
63 148WEYER SEBASTIEN 04:45:55 M (40 - 49) (17) 284.00
64 474GRARD MATTHIEU 04:47:00 M (18 - 29) (16) 285.00
65 158DELMEE GREGORY 04:47:37 M (40 - 49) (18) 283.00
66 445PETIT PASCAL 04:47:42 M (50 - 59) (9) 292.00
67 133BONNIN DAVID 04:49:44 M (40 - 49) (19) 282.00
68 229BAGNARIOL JULIEN 04:49:45 M (30 - 39) (19) 282.00
69 464CANNELLE EDDY 04:50:34 M (40 - 49) (20) 281.00
70 120WAELTI CHRISTIAN 04:51:34 M (40 - 49) (21) 280.00
71 481TOULON BRUNO 04:52:22 M (30 - 39) (20) 281.00
72 458DOUSSOT JONAS 04:52:51 M (30 - 39) (21) 280.00
73 244FEREIRE BRUNO 04:53:28 M (50 - 59) (10) 291.00
74 431LAØLY STEPHANE 04:57:39 M (40 - 49) (22) 279.00
75 138THIMON GILBERT 04:57:39 M (50 - 59) (11) 290.00
76 497ALBRYCHT ROMUALD 04:57:39 M (50 - 59) (12) 289.00
77 135VINCENT PASCAL 04:57:42 M (40 - 49) (23) 278.00
78 155ISMAEL COSTA 04:57:43 M (50 - 59) (13) 288.00
79 124HAEFELI MATTHIAS 04:58:21 M (40 - 49) (24) 277.00
80 319DE WITTE JURGEN 05:00:23 M (40 - 49) (25) 276.00
81 145VAN DEN HEUVEL BENNIE 05:00:51 M (50 - 59) (14) 287.00
82 29LECOCQ CEDRIC 05:00:51 M (40 - 49) (26) 275.00
83 314FOREST JULIEN 05:00:51 M (30 - 39) (22) 279.00
84 125THORMANN RALPH 05:00:51 M (50 - 59) (15) 286.00
85 304LAROCHETTE SIMON 05:00:52 M (18 - 29) (17) 284.00
86 486JOLIVOT SEBASTIEN 05:00:52 M (40 - 49) (27) 274.00
87 361MARION EMILIEN 05:00:52 M (30 - 39) (23) 278.00
88 387COUDERT RONAN 05:00:52 M (30 - 39) (24) 277.00
89 345RYCKBOSCH JAN 05:00:52 M (50 - 59) (16) 285.00
90 110BERAUD PASCAL 05:00:52 M (50 - 59) (17) 284.00
91 209THOMPSON ANDREW 05:00:53 M (40 - 49) (28) 273.00
92 338KINET PATRICK 05:00:53 M (50 - 59) (18) 283.00
93 396ROCHE JEAN FRANCOIS 05:00:53 M (60 - 66) (5) 296.00
94 469CAVAGNA CLAUDE 05:00:53 M (50 - 59) (19) 282.00
95 487DAVID GUILLAUME 05:00:54 M (50 - 59) (20) 281.00
96 118BECAM JEAN-YVES 05:00:54 M (60 - 66) (6) 295.00
97 477GENETET THOMAS 05:00:55 M (40 - 49) (29) 272.00
98 402QUELIN GERARD 05:01:02 M (60 - 66) (7) 294.00
99 342RAHOENS CHRISTOPHE 05:04:23 M (30 - 39) (25) 276.00
100 45THIRY FREDERIC 05:05:39 M (40 - 49) (30) 271.00
101 395MAIRE PIERRICK 05:08:17 M (30 - 39) (26) 275.00
102 119VERGER ERIC 05:10:20 M (50 - 59) (21) 280.00
103 438DUPONT STEPHANE 05:10:20 M (50 - 59) (22) 279.00
104 400LEBAUDY ANTHONY 05:10:20 M (40 - 49) (31) 270.00
105 131SIMON YVES 05:10:20 M (60 - 66) (8) 293.00
106 114CORNU MAURICE 05:10:21 M (67 & +) (1) 300.00
107 383DUMARTHERAY SERGE 05:10:21 M (40 - 49) (32) 269.00
108 163LESPAGNOL LAURENT 05:10:21 M (40 - 49) (33) 268.00
109 411LAVAUD ERIC 05:10:22 M (40 - 49) (34) 267.00
110 363RENAUDIE DENIS 05:10:22 M (50 - 59) (23) 278.00
111 26CLEMENT LAURENT 05:10:22 M (50 - 59) (24) 277.00
112 143ROUSSON JEAN 05:10:22 M (60 - 66) (9) 292.00
113 225REZZE ALAIN 05:10:23 M (50 - 59) (25) 276.00
114 434ROUSSELLE THIERRY 05:10:23 M (50 - 59) (26) 275.00
115 234ESTIENNE ADRIEN 05:10:23 M (18 - 29) (18) 283.00
116 424COSTET CYRIL 05:10:29 M (40 - 49) (35) 266.00
117 375FARRUGIO JEANPIERRE 05:10:31 M (50 - 59) (27) 274.00
118 221PELLET BENJAMIN 05:10:32 M (18 - 29) (19) 282.00
119 212DUROUX LOIC 05:10:32 M (30 - 39) (27) 274.00
120 164GAY NICOLAS 05:10:36 M (40 - 49) (36) 265.00
121 442CLOUARD S‚BASTIEN 05:11:43 M (40 - 49) (37) 264.00
122 237BOURCIER THOMAS 05:11:49 M (18 - 29) (20) 281.00
123 439ROBBIANI LOIC 05:12:08 M (50 - 59) (28) 273.00
124 52JIMENEZ NOEL 05:14:23 M (60 - 66) (10) 291.00
125 437GRANDJEAN XAVIER 05:16:50 M (30 - 39) (28) 273.00
126 21CENTLIVRE FRANCK 05:17:15 M (30 - 39) (29) 272.00
127 398MUNSCH JULIEN 05:17:44 M (30 - 39) (30) 271.00
128 462VERHOOGHE RIK 05:17:53 M (50 - 59) (29) 272.00
129 80JOURDOIS LUDOVIC 05:17:54 M (50 - 59) (30) 271.00
130 14NAEGELY GUY 05:17:57 M (60 - 66) (11) 290.00
131 418MANLHIOT FREDERIC 05:18:04 M (50 - 59) (31) 270.00
132 16ROOSE YANNIK 05:18:26 M (40 - 49) (38) 263.00
133 459VINCENT NICOLAS 05:18:51 M (30 - 39) (31) 270.00
134 151HENNEUZE GILLES 05:19:33 M (50 - 59) (32) 269.00
135 389DELACROIX RAPHAEL 05:19:40 M (50 - 59) (33) 268.00
136 337THOMAS CHRIS 05:19:55 M (18 - 29) (21) 280.00
137 379COSTE FREDERIC 05:20:26 M (40 - 49) (39) 262.00
138 218PATUEL IAN 05:20:56 M (50 - 59) (34) 267.00
139 323Beukema Goos 05:21:13 M (50 - 59) (35) 266.00
140 444COUSIN LAURENT 05:21:40 M (40 - 49) (40) 261.00
141 126COLLIARD DOMINIQUE 05:21:40 M (40 - 49) (41) 260.00
142 32VILLANCE JULIEN 05:21:51 M (67 & +) (2) 299.00
143 109VOLTEAU PATRICK 05:23:42 M (40 - 49) (42) 259.00
144 238BOUTOUX ALAIN 05:25:14 M (67 & +) (3) 298.00
145 144JOUFFLINEAU FRAN‡OIS 05:25:14 M (60 - 66) (12) 289.00
146 246DE FRAMOND YANN 05:26:58 M (50 - 59) (36) 265.00
147 235PEYRACHON JEAN LUC 05:27:05 M (50 - 59) (37) 264.00
148 132AMIET BAPTISTE 05:27:08 M (30 - 39) (32) 269.00
149 159GADIOU PIERRE 05:27:08 M (60 - 66) (13) 288.00
150 137MULOT STEPHANE 05:27:08 M (40 - 49) (43) 258.00
151 443DELEBECQUE ADRIEN 05:27:08 M (30 - 39) (33) 268.00
152 339BERG TOMAS 05:27:17 M (50 - 59) (38) 263.00
153 113PHILIBERT OCEANNE 05:27:33 F (18 - 34) (1) 300.00
154 309LAGLANTINE JEAN-PIERRE 05:29:09 M (40 - 49) (44) 257.00
155 349DE GRAAFF BERT 05:29:16 M (60 - 66) (14) 287.00
156 440DEPARDON AURELIE 05:29:26 F (18 - 34) (2) 299.00
157 401DEYGAS AYMERIC 05:29:39 M (18 - 29) (22) 279.00
158 365CRASQUIN THIERRY 05:29:56 M (50 - 59) (39) 262.00
159 343GAILLARD CHRISTOPHE 05:29:58 HANDISPORT (1) 300.00
160 3GOODWIN VICKI 05:30:08 F (35 - 49) (1) 300.00
161 242BOILLON MARCEL 05:30:09 M (50 - 59) (40) 261.00
162 436GON‡ALVES PAULO 05:31:00 M (30 - 39) (34) 267.00
163 321MANSILLA RAUL 05:32:26 M (18 - 29) (23) 278.00
164 435JUNET ERIC 05:34:17 M (50 - 59) (41) 260.00
165 156GROGNUZ MARTIAL 05:34:17 M (50 - 59) (42) 259.00
166 416FREYEISEN ARNAUD 05:34:22 M (18 - 29) (24) 277.00
167 406CARREY ERIC 05:35:48 M (50 - 59) (43) 258.00
168 213VALLADE ERIC 05:35:48 M (60 - 66) (15) 286.00
169 318VAN FRAEYENHOVEN GILBERT 05:36:24 M (50 - 59) (44) 257.00
170 224REBREYEND JEAN CLAUDE 05:36:24 M (50 - 59) (45) 256.00
171 22DICKHOUT JAN 05:36:24 M (67 & +) (4) 297.00
172 128PLISSON DANIEL 05:36:24 M (60 - 66) (16) 285.00
173 467KASTEL ALEXANDRE 05:36:25 M (40 - 49) (45) 256.00
174 73MARTIN CLAUDE 05:36:25 M (67 & +) (5) 296.00
175 140ANDRE WILLIAM 05:36:26 M (40 - 49) (46) 255.00
176 368BREUILLY YVAN 05:36:27 M (67 & +) (6) 295.00
177 386BONNAMOUR ALEXANDRE 05:36:27 M (40 - 49) (47) 254.00
178 207SPRENGERS STEFAAN 05:36:27 M (30 - 39) (35) 266.00
179 141BASSERY ANDRE 05:36:27 M (67 & +) (7) 294.00
180 13STANESCO JOEL 05:36:30 M (60 - 66) (17) 284.00
181 452LAFLEUR MARIE 05:38:32 F (18 - 34) (3) 298.00
182 245DESSERTINE BENOIT 05:38:33 M (30 - 39) (36) 265.00
183 121BEAUDIC THIERRY 05:40:07 M (50 - 59) (46) 255.00
184 149LASSARA ALAIN 05:40:26 M (67 & +) (8) 293.00
185 227DECRENISSE THIERRY 05:43:54 M (60 - 66) (18) 283.00
186 208FAVIS KEVIN 05:44:24 M (40 - 49) (48) 253.00
187 399LE COQUET LELIA 05:44:25 F (35 - 49) (2) 299.00
188 301LAUER MARC 05:44:39 M (40 - 49) (49) 252.00
189 426POJER ALAIN 05:45:54 M (40 - 49) (50) 251.00
190 427DURAND BENOIT 05:45:54 M (50 - 59) (47) 254.00
191 328CHARTIER SEBASTIEN 05:49:07 M (30 - 39) (37) 264.00
192 324DUPAYAGE CHRISTOPHE 05:49:25 M (30 - 39) (38) 263.00
193 344MAGNONI LUCA 05:49:44 M (40 - 49) (51) 250.00
194 422RICHARD STEVE 05:49:44 M (40 - 49) (52) 249.00
195 446ANTOULY THIERRY 05:52:24 M (50 - 59) (48) 253.00
196 228PATAY DAVID 05:52:24 M (40 - 49) (53) 248.00
197 378LE SCIELLOUR PHILIPPE 05:52:48 M (50 - 59) (49) 252.00
198 460VIAU DANIEL 05:52:50 M (40 - 49) (54) 247.00
199 63RUSSIAS JACQUES 05:53:29 M (67 & +) (9) 292.00
200 223SEVE MAX 05:53:37 M (60 - 66) (19) 282.00
201 248MORTEUX NICOLAS 05:53:37 M (30 - 39) (39) 262.00
202 495BALLANDRAS DAMIEN 05:53:42 M (30 - 39) (40) 261.00
203 351MARZOUK MOURAD 05:56:22 M (50 - 59) (50) 251.00
204 350DERIQUE J-F 05:56:23 M (50 - 59) (51) 250.00
205 317TALPAERT CEDRIC 05:56:55 M (30 - 39) (41) 260.00
206 473PEIGNE ANTHONY 05:56:58 M (18 - 29) (25) 276.00
207 310BEELEN ZJEF 05:57:10 M (40 - 49) (55) 246.00
208 217BIZIERES MICHEL 05:58:03 M (67 & +) (10) 291.00
209 472LANG CHRISTOPHE 05:59:22 M (50 - 59) (52) 249.00
210 482HALBEHER ERIC 05:59:22 M (50 - 59) (53) 248.00
211 405RIPOCHE YANNICK 05:59:43 M (50 - 59) (54) 247.00
212 12VANSPRINGEL JOSEPH 06:00:52 M (50 - 59) (55) 246.00
213 331EDWARDS CHRIS 06:00:53 M (30 - 39) (42) 259.00
214 356CREMASCHI ALAIN 06:02:13 M (50 - 59) (56) 245.00
215 372GRAMMONT EMMANUEL 06:02:13 M (40 - 49) (56) 245.00
216 352ADNET MICHEL 06:02:14 M (50 - 59) (57) 244.00
217 364ROYER MARC 06:03:15 M (60 - 66) (20) 281.00
218 330BILLY VINCENT 06:04:24 M (30 - 39) (43) 258.00
219 360MLYNARCZYK ARNAUD 06:05:07 M (40 - 49) (57) 244.00
220 329VESCO DAVID 06:06:09 M (30 - 39) (44) 257.00
221 404GLUCKMAN CHRISTIAN 06:07:09 M (40 - 49) (58) 243.00
222 420DEMEUZOY ALAIN 06:07:09 M (50 - 59) (58) 243.00
223 103THUREAU GISELE 06:08:34 F (50 & +) (1) 300.00
224 410NICOLAFRANCESCO ROLAND 06:08:39 M (60 - 66) (21) 280.00
225 392CAPLAIN OLIVIER 06:10:38 M (50 - 59) (59) 242.00
226 450JEANNE FRANCK 06:11:31 M (40 - 49) (59) 242.00
227 355FONTAINE JEAN-LOUIS 06:11:32 M (50 - 59) (60) 241.00
228 376BIARD JEAN PAUL 06:11:36 M (60 - 66) (22) 279.00
229 413CHIARAPPA DAVID 06:13:02 M (40 - 49) (60) 241.00
230 412BARVILLE MARC 06:13:03 M (40 - 49) (61) 240.00
231 433FOSSE AUR‚LIE 06:13:50 F (35 - 49) (3) 298.00
232 432FOSSE LUC 06:13:50 M (60 - 66) (23) 278.00
233 210MEADES JEZ 06:15:58 M (60 - 66) (24) 277.00
234 49TRONEL JEAN JACQUES 06:15:58 M (67 & +) (11) 290.00
235 315RIVALLEAU PHILIPPE 06:17:11 M (40 - 49) (62) 239.00
236 457GOUARD LUDOVIC 06:18:41 M (40 - 49) (63) 238.00
237 142VALLEZ FRANCIS 06:18:42 M (60 - 66) (25) 276.00
238 105JABY ERIC 06:20:20 M (50 - 59) (61) 240.00
239 366REYBET-DEGAT PIERRE-YVES 06:21:08 M (30 - 39) (45) 256.00
240 311BILLEROT JEROME 06:23:31 M (40 - 49) (64) 237.00
241 391DEGRACE DIDIER 06:25:33 M (50 - 59) (62) 239.00
242 346VAN BAEL LUC 06:25:47 M (50 - 59) (63) 238.00
243 390VERHAEGEN ILSE 06:25:47 F (50 & +) (2) 299.00
244 428SERGEFF OLIVIER 06:29:59 M (40 - 49) (65) 236.00
245 239DARIN BENOIT 06:30:15 M (60 - 66) (26) 275.00
246 382MAHIEU STEPHANE 06:34:40 M (40 - 49) (66) 235.00
247 136TARDIVEAU DANIEL 06:34:41 M (50 - 59) (64) 237.00
248 340WILLIAMS CRAIG 06:35:35 M (40 - 49) (67) 234.00
249 441CADOUX PHILIPPE 06:40:31 M (60 - 66) (27) 274.00
250 154VAREILLE ERIC 06:40:31 M (50 - 59) (65) 236.00
251 380CHOMONT YVES 06:41:01 M (50 - 59) (66) 235.00
252 332BERTRAND CHARLES 06:46:01 M (40 - 49) (68) 233.00
253 393BAUMANN HERVE 06:46:24 TANDEM (1) 300.00
254 394IAN ELLIOTT 06:46:24 TANDEM (2) 299.00
255 250MARSOLLIER FRANCOIS 06:48:58 M (50 - 59) (67) 234.00
256 354BERTRAND CHRISTOPHE 06:49:56 M (50 - 59) (68) 233.00
257 316WENSVEEN JOEP 06:49:57 M (40 - 49) (69) 232.00
258 358GRUPPEN LISBETH 06:50:10 F (35 - 49) (4) 297.00
259 322KRUMMENACKER CARL 06:52:07 M (30 - 39) (46) 255.00
260 134POLITAKIS GEORGES 06:54:59 M (50 - 59) (69) 232.00
261 456THIEBAUT CHRISTIAN 06:55:15 M (50 - 59) (70) 231.00
262 415MORLET JEAN YVES 06:55:15 M (67 & +) (12) 289.00
263 336WEENING ARCO 06:56:20 M (50 - 59) (71) 230.00
264 152SIMONEAU ALAIN 06:57:53 M (67 & +) (13) 288.00
265 334NGUYEN SYLVAIN 07:00:24 M (40 - 49) (70) 231.00
266 374LAMIC JACQUES 07:08:54 M (50 - 59) (72) 229.00
267 326PETIT XAVIER 07:10:37 M (40 - 49) (71) 230.00
268 325BELLOIS BERTRAND 07:10:37 M (40 - 49) (72) 229.00
269 129FERCHAUD LIONEL 07:28:25 M (30 - 39) (47) 254.00
270 247ROUE DELPHINE 07:28:28 F (35 - 49) (5) 296.00
271 373GROEN SANDER 07:28:28 M (40 - 49) (73) 228.00
272 9FARGUES HENRI 07:59:41 M (67 & +) (14) 287.00
273 10FARGUES CLAUDINE 07:59:42 F (50 & +) (3) 298.00
274 56BOURSET JACQUES 07:59:42 M (60 - 66) (28) 273.00


2017 - La Bourgogne Cyclo GranFondo - RANDO
DOS.TEMPS